Time;durP1;ratioP1;P1;durP2;ratioP2;P2;SDS_P1;SDS_P2;PMS_P1;PMS_P2;Temp;Humidity;BMP_temperature;BMP_pressure;BME280_temperature;BME280_humidity;BME280_pressure;Samples;Min_cycle;Max_cycle;Signal;HPM_P1;HPM_P2
2022/12/02 00:00:26;;;;;;;30.58;15.98;;;;;;;2.53;100.00;101639.91;695536;28;987;-71
2022/12/02 00:00:49;;;;;;;30.40;15.52;;;;;;;2.51;100.00;101635.50;699664;28;4426;-71
2022/12/02 00:01:12;;;;;;;29.63;15.82;;;;;;;2.60;100.00;101641.03;698379;28;1167;-71
2022/12/02 00:01:32;;;;;;;29.10;16.00;;;;;;;2.59;100.00;101635.81;699871;28;812;-71
2022/12/02 00:01:57;;;;;;;28.85;15.98;;;;;;;2.55;100.00;101639.97;699664;28;1205;-71
2022/12/02 00:02:24;;;;;;;28.05;15.73;;;;;;;2.53;100.00;101639.00;697241;28;1185;-71
2022/12/02 00:02:44;;;;;;;28.23;15.98;;;;;;;2.58;100.00;101637.50;695209;28;955;-71
2022/12/02 00:03:10;;;;;;;27.35;16.13;;;;;;;2.57;100.00;101635.75;695300;28;950;-71
2022/12/02 00:03:35;;;;;;;28.05;15.85;;;;;;;2.50;100.00;101638.88;696123;28;1251;-69
2022/12/02 00:03:56;;;;;;;28.63;16.48;;;;;;;2.40;100.00;101642.75;696415;28;4301;-71
2022/12/02 00:04:24;;;;;;;28.93;16.70;;;;;;;2.35;100.00;101639.97;695628;28;967;-71
2022/12/02 00:04:45;;;;;;;28.77;16.02;;;;;;;2.31;100.00;101638.06;696606;28;947;-72
2022/12/02 00:05:14;;;;;;;29.30;15.83;;;;;;;2.36;100.00;101635.69;694220;28;952;-71
2022/12/02 00:05:34;;;;;;;26.77;14.90;;;;;;;2.36;100.00;101640.84;691838;28;2169;-71
2022/12/02 00:05:55;;;;;;;27.42;14.68;;;;;;;2.41;100.00;101641.03;693161;28;1291;-72
2022/12/02 00:06:20;;;;;;;28.27;15.47;;;;;;;2.48;100.00;101637.91;693485;28;1177;-71
2022/12/02 00:06:41;;;;;;;26.54;15.00;;;;;;;2.51;100.00;101641.53;693751;28;4293;-70
2022/12/02 00:07:05;;;;;;;28.43;15.20;;;;;;;2.48;100.00;101640.50;692813;28;1090;-71
2022/12/02 00:07:25;;;;;;;28.75;16.02;;;;;;;2.50;100.00;101638.88;692626;28;1086;-71
2022/12/02 00:07:47;;;;;;;28.00;15.23;;;;;;;2.57;100.00;101638.31;694404;28;800;-71
2022/12/02 00:08:18;;;;;;;25.92;14.73;;;;;;;2.52;100.00;101644.97;693477;28;1080;-71
2022/12/02 00:08:39;;;;;;;28.38;15.02;;;;;;;2.45;100.00;101645.53;696897;28;1429;-71
2022/12/02 00:09:20;;;;;;;29.05;15.73;;;;;;;2.36;100.00;101644.31;700615;28;1031;-70
2022/12/02 00:09:42;;;;;;;26.48;14.95;;;;;;;2.36;100.00;101651.16;700923;28;4297;-71
2022/12/02 00:10:32;;;;;;;26.52;15.23;;;;;;;2.40;100.00;101642.75;694580;28;951;-70
2022/12/02 00:10:55;;;;;;;28.55;14.75;;;;;;;2.42;100.00;101645.41;692332;28;1285;-71
2022/12/02 00:11:24;;;;;;;26.88;15.25;;;;;;;2.41;100.00;101648.78;691915;28;1015;-71
2022/12/02 00:11:46;;;;;;;27.60;15.00;;;;;;;2.38;100.00;101645.28;693157;28;879;-71
2022/12/02 00:12:24;;;;;;;27.08;14.60;;;;;;;2.48;100.00;101640.50;698477;28;1025;-70
2022/12/02 00:12:44;;;;;;;27.08;14.38;;;;;;;2.56;100.00;101641.72;698943;28;4271;-70
2022/12/02 00:13:15;;;;;;;24.87;14.07;;;;;;;2.58;100.00;101646.97;699879;28;982;-70
2022/12/02 00:13:42;;;;;;;22.55;13.13;;;;;;;2.61;100.00;101647.97;699492;28;847;-70
2022/12/02 00:14:15;;;;;;;25.30;13.70;;;;;;;2.66;100.00;101655.91;698240;28;1220;-71
2022/12/02 00:14:37;;;;;;;21.73;12.75;;;;;;;2.64;100.00;101648.09;697125;28;1006;-71
2022/12/02 00:15:21;;;;;;;24.23;13.45;;;;;;;2.54;100.00;101646.81;695429;28;927;-70
2022/12/02 00:15:44;;;;;;;24.00;13.10;;;;;;;2.42;100.00;101645.41;694020;28;4507;-70
2022/12/02 00:16:04;;;;;;;23.60;13.30;;;;;;;2.41;100.00;101652.28;698829;28;897;-71
2022/12/02 00:16:25;;;;;;;23.38;13.35;;;;;;;2.37;100.00;101643.50;698090;28;1326;-71
2022/12/02 00:16:47;;;;;;;23.08;12.98;;;;;;;2.34;100.00;101645.94;698843;28;1961;-71
2022/12/02 00:17:07;;;;;;;24.35;13.60;;;;;;;2.29;100.00;101643.97;697783;28;975;-69
2022/12/02 00:17:27;;;;;;;24.65;14.32;;;;;;;2.28;100.00;101648.25;699199;28;963;-71
2022/12/02 00:17:48;;;;;;;25.70;14.47;;;;;;;2.27;100.00;101641.34;698554;28;915;-71
2022/12/02 00:18:12;;;;;;;26.48;14.27;;;;;;;2.26;100.00;101644.72;699705;28;1238;-71
2022/12/02 00:18:32;;;;;;;26.70;14.75;;;;;;;2.27;100.00;101643.91;695536;28;1431;-71
2022/12/02 00:18:54;;;;;;;24.93;14.83;;;;;;;2.30;100.00;101643.13;694606;28;4409;-71
2022/12/02 00:19:14;;;;;;;25.10;13.50;;;;;;;2.27;100.00;101638.75;694473;28;1340;-70
2022/12/02 00:19:35;;;;;;;24.83;13.57;;;;;;;2.32;100.00;101629.50;694740;28;974;-70
2022/12/02 00:19:55;;;;;;;24.20;13.00;;;;;;;2.33;100.00;101639.00;694117;28;986;-72
2022/12/02 00:20:15;;;;;;;24.63;13.43;;;;;;;2.31;100.00;101632.91;693388;28;4183;-71
2022/12/02 00:20:36;;;;;;;24.10;14.10;;;;;;;2.36;100.00;101630.53;698945;28;911;-69
2022/12/02 00:20:57;;;;;;;24.00;14.18;;;;;;;2.34;100.00;101627.88;698388;28;1003;-72
2022/12/02 00:21:18;;;;;;;22.70;13.70;;;;;;;2.35;100.00;101639.06;698025;28;903;-71
2022/12/02 00:21:39;;;;;;;23.13;13.52;;;;;;;2.33;100.00;101630.41;697518;28;4277;-72
2022/12/02 00:21:59;;;;;;;24.37;13.73;;;;;;;2.31;100.00;101626.84;697538;28;772;-71
2022/12/02 00:22:20;;;;;;;25.38;13.35;;;;;;;2.28;100.00;101629.31;699801;28;1325;-71
2022/12/02 00:22:40;;;;;;;23.90;13.30;;;;;;;2.26;100.00;101629.25;701870;28;1275;-71
2022/12/02 00:23:01;;;;;;;22.15;13.15;;;;;;;2.26;100.00;101628.34;700664;28;769;-71
2022/12/02 00:23:22;;;;;;;23.50;13.07;;;;;;;2.25;100.00;101630.03;701441;28;1117;-69
2022/12/02 00:23:42;;;;;;;22.50;12.93;;;;;;;2.26;100.00;101629.25;701386;28;826;-69
2022/12/02 00:24:03;;;;;;;23.10;12.90;;;;;;;2.26;100.00;101628.34;701487;28;915;-70
2022/12/02 00:24:23;;;;;;;22.10;12.98;;;;;;;2.24;100.00;101629.97;697412;28;971;-71
2022/12/02 00:24:43;;;;;;;22.00;13.07;;;;;;;2.23;100.00;101629.09;698061;28;4290;-69
2022/12/02 00:25:04;;;;;;;22.83;12.77;;;;;;;2.21;100.00;101620.41;698959;28;776;-70
2022/12/02 00:25:24;;;;;;;23.45;12.40;;;;;;;2.19;100.00;101627.19;698785;28;1166;-69
2022/12/02 00:25:47;;;;;;;24.05;13.25;;;;;;;2.19;100.00;101632.38;699343;28;926;-71
2022/12/02 00:26:08;;;;;;;21.77;12.23;;;;;;;2.27;100.00;101627.53;698771;28;1180;-70
2022/12/02 00:26:28;;;;;;;22.17;12.38;;;;;;;2.25;100.00;101624.88;698895;28;855;-71
2022/12/02 00:26:49;;;;;;;23.93;13.10;;;;;;;2.24;100.00;101625.69;699063;28;831;-69
2022/12/02 00:27:10;;;;;;;23.80;12.95;;;;;;;2.26;100.00;101623.16;698328;28;915;-71
2022/12/02 00:27:30;;;;;;;23.02;13.25;;;;;;;2.32;100.00;101626.91;693581;28;1721;-71
2022/12/02 00:27:51;;;;;;;21.97;12.77;;;;;;;2.40;100.00;101624.69;695627;28;4308;-71
2022/12/02 00:28:11;;;;;;;22.67;12.53;;;;;;;2.46;100.00;101626.66;695370;28;1154;-72
2022/12/02 00:28:31;;;;;;;24.23;12.70;;;;;;;2.53;100.00;101628.69;695253;28;816;-71
2022/12/02 00:28:52;;;;;;;23.00;12.87;;;;;;;2.51;100.00;101625.16;695700;28;904;-70
2022/12/02 00:29:12;;;;;;;22.98;13.18;;;;;;;2.47;100.00;101628.44;695029;28;1587;-69
2022/12/02 00:29:33;;;;;;;21.77;12.65;;;;;;;2.40;100.00;101622.09;701270;28;1335;-70
2022/12/02 00:29:53;;;;;;;21.87;12.47;;;;;;;2.39;100.00;101620.34;695016;28;819;-71
2022/12/02 00:30:13;;;;;;;21.97;12.90;;;;;;;2.36;100.00;101615.91;696106;28;1440;-71
2022/12/02 00:30:34;;;;;;;22.25;12.80;;;;;;;2.38;100.00;101619.47;695731;28;827;-70
2022/12/02 00:30:54;;;;;;;22.87;12.57;;;;;;;2.37;100.00;101614.25;695640;28;4295;-71
2022/12/02 00:31:15;;;;;;;22.33;12.38;;;;;;;2.33;100.00;101608.03;695813;28;1007;-71
2022/12/02 00:31:35;;;;;;;22.87;13.03;;;;;;;2.32;100.00;101614.00;697620;28;1110;-71
2022/12/02 00:31:56;;;;;;;22.25;12.95;;;;;;;2.30;100.00;101614.75;696149;28;808;-71
2022/12/02 00:32:16;;;;;;;22.80;13.33;;;;;;;2.29;100.00;101615.59;698937;28;1021;-70
2022/12/02 00:32:36;;;;;;;23.30;13.50;;;;;;;2.21;100.00;101618.69;699209;28;882;-69
2022/12/02 00:32:57;;;;;;;21.87;12.70;;;;;;;2.16;100.00;101621.88;696007;28;1157;-70
2022/12/02 00:33:17;;;;;;;22.20;12.60;;;;;;;2.15;100.00;101626.16;696143;28;1105;-71
2022/12/02 00:33:37;;;;;;;21.70;12.63;;;;;;;2.17;100.00;101623.66;693629;28;985;-71
2022/12/02 00:33:59;;;;;;;22.07;12.30;;;;;;;2.15;100.00;101617.56;692892;28;4242;-69
2022/12/02 00:34:19;;;;;;;22.02;12.23;;;;;;;2.15;100.00;101617.56;692837;28;1493;-69
2022/12/02 00:34:39;;;;;;;22.33;12.30;;;;;;;2.12;100.00;101620.88;692832;28;1204;-69
2022/12/02 00:35:00;;;;;;;22.63;12.70;;;;;;;2.10;100.00;101621.63;693093;28;943;-69
2022/12/02 00:35:22;;;;;;;22.47;12.57;;;;;;;2.11;100.00;101616.53;689781;28;1314;-68
2022/12/02 00:35:43;;;;;;;23.15;12.70;;;;;;;2.10;100.00;101619.03;692257;28;1330;-71
2022/12/02 00:36:04;;;;;;;22.33;12.70;;;;;;;2.06;100.00;101614.56;692456;28;836;-71
2022/12/02 00:36:26;;;;;;;21.13;12.53;;;;;;;2.04;100.00;101622.22;695551;28;1441;-69
2022/12/02 00:36:46;;;;;;;20.85;12.40;;;;;;;2.07;100.00;101622.34;695088;28;4453;-70
2022/12/02 00:37:06;;;;;;;22.95;13.18;;;;;;;2.06;100.00;101619.72;696033;28;980;-69
2022/12/02 00:37:27;;;;;;;23.10;13.27;;;;;;;2.06;100.00;101619.72;698126;28;911;-71
2022/12/02 00:37:47;;;;;;;21.90;12.80;;;;;;;2.06;100.00;101620.59;697218;28;1244;-71
2022/12/02 00:38:08;;;;;;;22.40;12.53;;;;;;;2.06;100.00;101619.72;696444;28;1009;-69
2022/12/02 00:38:28;;;;;;;22.05;12.50;;;;;;;2.04;100.00;101617.06;700322;28;819;-69
2022/12/02 00:38:48;;;;;;;22.57;12.97;;;;;;;2.04;100.00;101625.69;700151;28;4903;-70
2022/12/02 00:39:09;;;;;;;23.40;13.20;;;;;;;2.02;100.00;101619.59;700025;28;978;-70
2022/12/02 00:39:30;;;;;;;23.40;12.63;;;;;;;2.05;100.00;101613.69;697428;28;1244;-70
2022/12/02 00:39:51;;;;;;;22.10;12.80;;;;;;;2.03;100.00;101616.16;697163;28;4293;-69
2022/12/02 00:40:11;;;;;;;23.65;12.82;;;;;;;2.07;100.00;101624.06;699092;28;1424;-71
2022/12/02 00:40:32;;;;;;;25.13;13.45;;;;;;;2.11;100.00;101626.84;700893;28;1597;-70
2022/12/02 00:40:52;;;;;;;23.30;13.17;;;;;;;2.10;100.00;101619.03;700724;28;807;-70
2022/12/02 00:41:12;;;;;;;21.73;12.43;;;;;;;2.10;100.00;101621.63;697521;28;1280;-68
2022/12/02 00:41:33;;;;;;;23.53;12.83;;;;;;;2.15;100.00;101618.44;700396;28;974;-70
2022/12/02 00:41:53;;;;;;;22.93;13.30;;;;;;;2.16;100.00;101617.63;696038;28;1621;-70
2022/12/02 00:42:13;;;;;;;22.50;12.32;;;;;;;2.17;100.00;101616.81;696144;28;1653;-70
2022/12/02 00:42:34;;;;;;;24.43;12.60;;;;;;;2.18;100.00;101615.09;693417;28;1384;-71
2022/12/02 00:46:30;;;;;;;23.13;13.07;;;;;;;2.13;100.00;101612.34;689993;28;4461;-68
2022/12/02 00:46:50;;;;;;;22.80;13.55;;;;;;;2.12;100.00;101614.81;696940;28;1611;-70
2022/12/02 00:47:11;;;;;;;23.63;13.70;;;;;;;2.13;100.00;101616.59;698649;28;966;-70
2022/12/02 00:47:31;;;;;;;21.95;12.63;;;;;;;2.13;100.00;101604.59;701640;28;835;-69
2022/12/02 00:47:52;;;;;;;22.57;12.90;;;;;;;2.13;100.00;101606.28;702173;28;756;-70
2022/12/02 00:48:12;;;;;;;23.92;13.13;;;;;;;2.14;100.00;101613.22;697899;28;998;-70
2022/12/02 00:48:34;;;;;;;22.57;12.83;;;;;;;2.14;100.00;101618.38;698204;28;1319;-69
2022/12/02 00:48:54;;;;;;;22.63;13.00;;;;;;;2.15;100.00;101614.97;696385;28;4279;-70
2022/12/02 00:49:16;;;;;;;24.53;13.67;;;;;;;2.15;100.00;101613.28;694565;28;935;-70
2022/12/02 00:49:36;;;;;;;23.25;13.63;;;;;;;2.16;100.00;101604.72;695054;28;823;-69
2022/12/02 00:49:59;;;;;;;21.80;12.53;;;;;;;2.18;100.00;101610.81;695267;28;1300;-70
2022/12/02 00:50:19;;;;;;;21.30;12.27;;;;;;;2.20;100.00;101605.72;695217;28;962;-71
2022/12/02 00:50:39;;;;;;;23.47;13.93;;;;;;;2.18;100.00;101609.94;697833;28;785;-70
2022/12/02 00:51:00;;;;;;;22.73;13.67;;;;;;;2.15;100.00;101609.81;697176;28;835;-70
2022/12/02 00:51:21;;;;;;;21.08;12.68;;;;;;;2.13;100.00;101607.19;693358;28;1038;-70
2022/12/02 00:51:42;;;;;;;21.87;12.90;;;;;;;2.12;100.00;101609.66;695558;28;4416;-71
2022/12/02 00:52:03;;;;;;;23.17;13.27;;;;;;;2.12;100.00;101607.97;699576;28;1174;-69
2022/12/02 00:52:24;;;;;;;24.13;13.80;;;;;;;2.11;100.00;101607.91;695269;28;1467;-70
2022/12/02 00:52:44;;;;;;;25.27;14.17;;;;;;;2.16;100.00;101608.97;696385;28;888;-72
2022/12/02 00:53:04;;;;;;;23.70;13.70;;;;;;;2.22;100.00;101604.13;698994;28;892;-68
2022/12/02 00:53:25;;;;;;;23.33;13.18;;;;;;;2.20;100.00;101598.88;698406;28;2080;-70
2022/12/02 00:53:46;;;;;;;23.50;13.20;;;;;;;2.19;100.00;101597.13;695227;28;790;-71
2022/12/02 00:54:06;;;;;;;22.40;13.30;;;;;;;2.20;100.00;101598.88;692702;28;780;-69
2022/12/02 00:54:27;;;;;;;23.67;13.40;;;;;;;2.20;100.00;101606.63;695763;28;1439;-69
2022/12/02 00:54:47;;;;;;;23.80;13.52;;;;;;;2.21;100.00;101604.91;698077;28;4334;-68
2022/12/02 00:55:08;;;;;;;21.77;12.97;;;;;;;2.19;100.00;101607.44;699231;28;1151;-70
2022/12/02 00:55:28;;;;;;;21.75;12.35;;;;;;;2.20;100.00;101600.56;696674;28;1381;-71
2022/12/02 00:55:49;;;;;;;21.73;12.23;;;;;;;2.19;100.00;101597.13;692258;28;915;-70
2022/12/02 00:56:09;;;;;;;22.80;12.80;;;;;;;2.19;100.00;101602.28;693646;28;1676;-72
2022/12/02 00:56:30;;;;;;;23.83;12.70;;;;;;;2.18;100.00;101603.09;693501;28;1023;-68
2022/12/02 00:56:50;;;;;;;23.15;12.75;;;;;;;2.18;100.00;101589.31;692413;28;1979;-71
2022/12/02 00:57:11;;;;;;;23.00;12.77;;;;;;;2.20;100.00;101598.00;691254;28;965;-71
2022/12/02 00:57:31;;;;;;;23.50;13.73;;;;;;;2.19;100.00;101593.66;694419;28;785;-68
2022/12/02 00:57:51;;;;;;;23.50;13.70;;;;;;;2.18;100.00;101602.22;694450;28;4295;-70
2022/12/02 00:58:12;;;;;;;21.53;12.77;;;;;;;2.13;100.00;101595.97;691706;28;1396;-70
2022/12/02 00:58:32;;;;;;;22.35;12.80;;;;;;;2.13;100.00;101590.78;692700;28;1303;-70
2022/12/02 00:58:53;;;;;;;23.00;12.88;;;;;;;2.13;100.00;101603.69;690231;28;1335;-70
2022/12/02 00:59:14;;;;;;;22.63;12.88;;;;;;;2.09;100.00;101597.53;695622;28;1199;-70
2022/12/02 00:59:34;;;;;;;22.10;13.00;;;;;;;2.08;100.00;101605.19;696501;28;812;-70
2022/12/02 00:59:55;;;;;;;23.50;13.03;;;;;;;2.07;100.00;101600.84;699089;28;1111;-70
2022/12/02 01:00:15;;;;;;;21.77;12.33;;;;;;;2.07;100.00;101599.16;695774;28;1098;-70
2022/12/02 01:00:37;;;;;;;23.65;13.02;;;;;;;2.08;100.00;101605.19;696817;28;1537;-70
2022/12/02 01:00:57;;;;;;;24.70;13.20;;;;;;;2.09;100.00;101596.63;695368;28;4283;-71
2022/12/02 01:01:18;;;;;;;22.50;13.33;;;;;;;2.10;100.00;101600.97;693146;28;1027;-71
2022/12/02 01:01:43;;;;;;;21.83;12.90;;;;;;;2.12;100.00;101599.34;693308;28;1087;-69
2022/12/02 01:02:03;;;;;;;22.27;12.90;;;;;;;2.11;100.00;101601.03;691815;28;1218;-69
2022/12/02 01:02:24;;;;;;;22.63;13.02;;;;;;;2.12;100.00;101591.59;693354;28;912;-70
2022/12/02 01:02:45;;;;;;;23.03;13.30;;;;;;;2.19;100.00;101594.53;695956;28;1371;-70
2022/12/02 01:03:05;;;;;;;22.80;13.18;;;;;;;2.20;100.00;101588.56;695035;28;914;-69
2022/12/02 01:03:26;;;;;;;23.33;13.33;;;;;;;2.20;100.00;101592.81;695164;28;1518;-70
2022/12/02 01:03:46;;;;;;;24.17;13.68;;;;;;;2.21;100.00;101600.63;693197;28;4440;-70
2022/12/02 01:04:06;;;;;;;24.83;13.13;;;;;;;2.20;100.00;101591.16;695067;28;1000;-68
2022/12/02 01:04:27;;;;;;;22.10;12.98;;;;;;;2.18;100.00;101591.88;694220;28;840;-70
2022/12/02 01:04:47;;;;;;;23.10;13.07;;;;;;;2.18;100.00;101590.19;690582;28;1204;-69
2022/12/02 01:05:08;;;;;;;22.73;13.10;;;;;;;2.18;100.00;101594.47;694127;28;925;-70
2022/12/02 01:05:29;;;;;;;21.03;12.60;;;;;;;2.17;100.00;101593.59;693743;28;899;-70
2022/12/02 01:05:49;;;;;;;21.67;12.90;;;;;;;2.17;100.00;101598.75;693779;28;962;-70
2022/12/02 01:06:10;;;;;;;23.20;13.03;;;;;;;2.14;100.00;101593.44;696232;28;1131;-70
2022/12/02 01:06:30;;;;;;;24.48;13.40;;;;;;;2.13;100.00;101595.97;696176;28;998;-70
2022/12/02 01:06:50;;;;;;;22.75;12.95;;;;;;;2.15;100.00;101596.91;698775;28;4333;-71
2022/12/02 01:07:11;;;;;;;23.40;13.33;;;;;;;2.17;100.00;101592.69;695262;28;1227;-70
2022/12/02 01:07:31;;;;;;;22.60;13.40;;;;;;;2.15;100.00;101589.19;696188;28;898;-70
2022/12/02 01:07:53;;;;;;;21.25;12.93;;;;;;;2.17;100.00;101593.59;693387;28;958;-68
2022/12/02 01:08:13;;;;;;;20.53;12.17;;;;;;;2.16;100.00;101591.81;695286;28;1032;-71
2022/12/02 01:08:34;;;;;;;22.07;12.57;;;;;;;2.18;100.00;101599.63;697325;28;1237;-70
2022/12/02 01:08:55;;;;;;;22.63;12.93;;;;;;;2.20;100.00;101593.72;694940;28;1465;-70
2022/12/02 01:09:16;;;;;;;23.23;12.90;;;;;;;2.21;100.00;101589.44;695030;28;1062;-71
2022/12/02 01:09:38;;;;;;;22.20;12.93;;;;;;;2.21;100.00;101587.72;694764;28;927;-70
2022/12/02 01:09:58;;;;;;;19.70;12.30;;;;;;;2.22;100.00;101596.38;692729;28;4420;-69
2022/12/02 01:10:19;;;;;;;20.73;12.45;;;;;;;2.21;100.00;101592.03;692719;28;1019;-70
2022/12/02 01:10:40;;;;;;;20.50;12.10;;;;;;;2.20;100.00;101598.00;693258;28;1378;-71
2022/12/02 01:11:01;;;;;;;23.20;13.07;;;;;;;2.16;100.00;101591.81;692340;28;1513;-71
2022/12/02 01:11:21;;;;;;;23.73;12.97;;;;;;;2.15;100.00;101596.91;693082;28;1068;-70
2022/12/02 01:11:42;;;;;;;23.45;12.93;;;;;;;2.14;100.00;101595.16;694574;28;962;-70
2022/12/02 01:12:03;;;;;;;23.65;12.82;;;;;;;2.10;100.00;101598.41;691863;28;1292;-70
2022/12/02 01:12:24;;;;;;;22.63;12.83;;;;;;;2.09;100.00;101597.53;692542;28;1096;-69
2022/12/02 01:12:44;;;;;;;23.30;13.32;;;;;;;2.10;100.00;101595.81;691966;28;4376;-70
2022/12/02 01:13:04;;;;;;;24.27;12.73;;;;;;;2.12;100.00;101602.81;694988;28;1056;-71
2022/12/02 01:13:26;;;;;;;24.73;13.33;;;;;;;2.12;100.00;101602.81;698990;28;1337;-70
2022/12/02 01:13:46;;;;;;;22.55;13.13;;;;;;;2.13;100.00;101591.69;694940;28;1500;-70
2022/12/02 01:14:08;;;;;;;23.75;13.40;;;;;;;2.13;100.00;101596.84;695622;28;1231;-70
2022/12/02 01:14:29;;;;;;;23.47;13.37;;;;;;;2.15;100.00;101595.22;695024;28;915;-70
2022/12/02 01:14:49;;;;;;;24.13;13.43;;;;;;;2.15;100.00;101590.06;695483;28;916;-70
2022/12/02 01:15:10;;;;;;;24.73;13.27;;;;;;;2.15;100.00;101594.34;693980;28;860;-71
2022/12/02 01:15:30;;;;;;;26.08;13.48;;;;;;;2.17;100.00;101596.19;692997;28;1318;-70
2022/12/02 01:15:53;;;;;;;24.45;13.93;;;;;;;2.18;100.00;101594.47;695390;28;4307;-70
2022/12/02 01:16:14;;;;;;;22.08;13.38;;;;;;;2.20;100.00;101587.66;696255;28;3458;-71
2022/12/02 01:16:34;;;;;;;23.60;13.63;;;;;;;2.19;100.00;101586.78;695788;28;1604;-69
2022/12/02 01:16:55;;;;;;;24.07;13.57;;;;;;;2.20;100.00;101587.66;696144;28;1925;-70
2022/12/02 01:17:16;;;;;;;24.25;13.73;;;;;;;2.19;100.00;101591.09;690532;28;1469;-70
2022/12/02 01:17:37;;;;;;;24.33;13.60;;;;;;;2.20;100.00;101590.25;693751;28;1530;-70
2022/12/02 01:17:57;;;;;;;24.42;13.80;;;;;;;2.20;100.00;101587.66;694591;28;1181;-70
2022/12/02 01:18:18;;;;;;;23.17;13.20;;;;;;;2.24;100.00;101586.13;690963;28;964;-70
2022/12/02 01:18:39;;;;;;;24.23;13.20;;;;;;;2.29;100.00;101589.78;691769;28;855;-70
2022/12/02 01:18:59;;;;;;;24.47;13.37;;;;;;;2.27;100.00;101587.16;696073;28;4269;-70
2022/12/02 01:19:19;;;;;;;25.37;12.93;;;;;;;2.26;100.00;101590.53;697711;28;1006;-71
2022/12/02 01:19:39;;;;;;;23.07;12.63;;;;;;;2.26;100.00;101590.53;693248;28;864;-70
2022/12/02 01:20:00;;;;;;;25.52;13.35;;;;;;;2.26;100.00;101587.94;695554;28;784;-70
2022/12/02 01:20:21;;;;;;;25.70;13.80;;;;;;;2.27;100.00;101586.25;695734;28;1054;-70
2022/12/02 01:20:41;;;;;;;24.13;13.38;;;;;;;2.26;100.00;101585.38;696625;28;824;-68
2022/12/02 01:21:02;;;;;;;24.73;13.43;;;;;;;2.26;100.00;101590.53;695505;28;1030;-69
2022/12/02 01:21:22;;;;;;;24.07;13.53;;;;;;;2.36;100.00;101584.94;691923;28;992;-68
2022/12/02 01:21:43;;;;;;;22.73;13.38;;;;;;;2.47;100.00;101587.13;693391;28;4266;-70
2022/12/02 01:22:03;;;;;;;23.97;13.63;;;;;;;2.45;100.00;101589.66;694263;28;899;-70
2022/12/02 01:22:23;;;;;;;24.88;13.82;;;;;;;2.42;100.00;101583.47;695012;28;1265;-71
2022/12/02 01:22:44;;;;;;;24.30;13.77;;;;;;;2.41;100.00;101592.00;694147;28;1283;-70
2022/12/02 01:23:04;;;;;;;23.20;13.57;;;;;;;2.37;100.00;101585.84;694803;28;876;-69
2022/12/02 01:23:25;;;;;;;24.67;13.83;;;;;;;2.32;100.00;101587.34;691974;28;1407;-70
2022/12/02 01:23:46;;;;;;;24.58;13.43;;;;;;;2.29;100.00;101590.66;692416;28;1274;-70
2022/12/02 01:24:06;;;;;;;23.23;13.10;;;;;;;2.26;100.00;101587.06;691780;28;814;-70
2022/12/02 01:24:26;;;;;;;24.07;13.40;;;;;;;2.26;100.00;101594.78;693158;28;1132;-69
2022/12/02 01:24:47;;;;;;;25.03;13.63;;;;;;;2.25;100.00;101582.72;693096;28;4358;-70
2022/12/02 01:25:07;;;;;;;25.70;14.13;;;;;;;2.25;100.00;101583.59;693944;28;1088;-68
2022/12/02 01:25:28;;;;;;;24.30;13.75;;;;;;;2.23;100.00;101585.25;695668;28;898;-70
2022/12/02 01:25:48;;;;;;;23.97;13.43;;;;;;;2.19;100.00;101586.78;694610;28;811;-68
2022/12/02 01:26:08;;;;;;;24.23;13.63;;;;;;;2.16;100.00;101581.50;695144;28;1296;-70
2022/12/02 01:26:29;;;;;;;24.90;13.65;;;;;;;2.17;100.00;101590.13;694927;28;895;-73
2022/12/02 01:26:51;;;;;;;24.43;13.47;;;;;;;2.19;100.00;101583.34;694972;28;832;-68
2022/12/02 01:27:12;;;;;;;23.08;13.10;;;;;;;2.23;100.00;101574.94;694572;28;1010;-69
2022/12/02 01:27:32;;;;;;;26.03;13.83;;;;;;;2.30;100.00;101576.94;697848;28;1349;-70
2022/12/02 01:27:53;;;;;;;25.67;14.73;;;;;;;2.30;100.00;101581.22;696328;28;4366;-70
2022/12/02 01:28:15;;;;;;;24.88;14.60;;;;;;;2.25;100.00;101575.00;702651;27;1112;-71
2022/12/02 01:28:35;;;;;;;26.13;14.75;;;;;;;2.24;100.00;101574.09;697507;28;956;-70
2022/12/02 01:28:56;;;;;;;24.83;14.00;;;;;;;2.25;100.00;101581.03;695064;28;888;-71
2022/12/02 01:29:16;;;;;;;25.70;14.95;;;;;;;2.18;100.00;101585.03;690507;28;951;-70
2022/12/02 01:29:36;;;;;;;27.53;15.03;;;;;;;2.17;100.00;101570.38;688656;28;1571;-69
2022/12/02 01:29:57;;;;;;;27.47;14.47;;;;;;;2.27;100.00;101582.00;689399;28;827;-70
2022/12/02 01:30:17;;;;;;;27.90;15.00;;;;;;;2.30;100.00;101576.94;689242;28;1002;-70
2022/12/02 01:30:37;;;;;;;26.77;14.93;;;;;;;2.30;100.00;101587.28;695821;28;761;-68
2022/12/02 01:31:00;;;;;;;27.38;15.20;;;;;;;2.29;100.00;101580.34;694550;28;4284;-70
2022/12/02 01:31:20;;;;;;;25.67;14.68;;;;;;;2.29;100.00;101582.06;694948;28;1389;-68
2022/12/02 01:31:41;;;;;;;27.10;14.88;;;;;;;2.28;100.00;101585.44;695906;28;1246;-70
2022/12/02 01:32:01;;;;;;;27.07;14.87;;;;;;;2.28;100.00;101585.44;696518;28;1163;-71
2022/12/02 01:32:23;;;;;;;27.83;14.98;;;;;;;2.31;100.00;101585.56;694749;28;1166;-71
2022/12/02 01:32:44;;;;;;;27.08;14.40;;;;;;;2.40;100.00;101585.97;697665;28;1030;-70
2022/12/02 01:33:04;;;;;;;26.57;14.80;;;;;;;2.38;100.00;101587.59;697447;28;793;-70
2022/12/02 01:33:24;;;;;;;29.20;15.18;;;;;;;2.41;100.00;101586.84;696202;28;1258;-71
2022/12/02 01:33:45;;;;;;;26.70;15.20;;;;;;;2.47;100.00;101589.72;695747;28;4305;-70
2022/12/02 01:34:05;;;;;;;25.42;14.45;;;;;;;2.44;100.00;101586.97;693683;28;1498;-70
2022/12/02 01:34:25;;;;;;;27.40;15.17;;;;;;;2.40;100.00;101585.97;695797;28;1319;-69
2022/12/02 01:34:46;;;;;;;28.25;15.25;;;;;;;2.38;100.00;101587.59;694058;28;847;-70
2022/12/02 01:35:07;;;;;;;26.77;14.73;;;;;;;2.42;100.00;101586.91;696040;28;1000;-69
2022/12/02 01:35:27;;;;;;;27.38;14.75;;;;;;;2.37;100.00;101584.13;696132;28;752;-70
2022/12/02 01:35:47;;;;;;;27.57;14.73;;;;;;;2.36;100.00;101586.66;696056;28;947;-70
2022/12/02 01:36:08;;;;;;;27.48;15.07;;;;;;;2.36;100.00;101584.06;695989;28;1154;-70
2022/12/02 01:36:28;;;;;;;27.70;15.20;;;;;;;2.34;100.00;101581.44;696335;28;1001;-71
2022/12/02 01:36:49;;;;;;;26.55;15.00;;;;;;;2.36;100.00;101584.06;695851;28;4258;-70
2022/12/02 01:37:09;;;;;;;27.93;15.17;;;;;;;2.39;100.00;101581.63;698824;28;1163;-70
2022/12/02 01:37:29;;;;;;;27.20;14.73;;;;;;;2.38;100.00;101583.34;699557;28;926;-70
2022/12/02 01:37:50;;;;;;;28.60;15.37;;;;;;;2.34;100.00;101584.00;698169;28;1147;-70
2022/12/02 01:38:10;;;;;;;26.47;15.17;;;;;;;2.33;100.00;101581.38;696223;28;1443;-70
2022/12/02 01:38:30;;;;;;;27.42;15.57;;;;;;;2.32;100.00;101580.47;696832;28;863;-69
2022/12/02 01:38:51;;;;;;;27.70;15.17;;;;;;;2.39;100.00;101586.78;698364;28;4865;-70
2022/12/02 01:39:11;;;;;;;28.13;15.18;;;;;;;2.40;100.00;101585.97;698010;28;1338;-69
2022/12/02 01:39:32;;;;;;;27.63;15.07;;;;;;;2.40;100.00;101585.97;695982;28;1159;-70
2022/12/02 01:39:52;;;;;;;29.75;16.48;;;;;;;2.37;100.00;101586.72;695180;28;4293;-70
2022/12/02 01:40:14;;;;;;;27.97;15.60;;;;;;;2.35;100.00;101579.72;697928;28;1385;-71
2022/12/02 01:40:34;;;;;;;27.83;15.40;;;;;;;2.36;100.00;101584.06;697994;28;907;-70
2022/12/02 01:40:55;;;;;;;27.97;15.17;;;;;;;2.36;100.00;101584.06;699218;28;880;-70
2022/12/02 01:41:15;;;;;;;28.50;15.68;;;;;;;2.38;100.00;101578.16;693905;28;1234;-70
2022/12/02 01:41:36;;;;;;;29.30;15.55;;;;;;;2.37;100.00;101573.81;696499;28;1317;-70
2022/12/02 01:41:56;;;;;;;28.07;15.27;;;;;;;2.33;100.00;101579.66;695945;28;856;-70
2022/12/02 01:42:17;;;;;;;29.85;15.82;;;;;;;2.30;100.00;101574.38;693892;28;1261;-70
2022/12/02 01:42:38;;;;;;;28.33;14.93;;;;;;;2.29;100.00;101580.34;697400;28;1213;-70
2022/12/02 01:42:59;;;;;;;28.17;15.75;;;;;;;2.33;100.00;101576.22;696417;28;4408;-70
2022/12/02 01:43:19;;;;;;;27.00;15.53;;;;;;;2.36;100.00;101578.91;696362;28;1028;-70
2022/12/02 01:43:39;;;;;;;28.15;15.27;;;;;;;2.36;100.00;101574.63;695296;28;1167;-70